Time;durP1;ratioP1;P1;durP2;ratioP2;P2;SDS_P1;SDS_P2;PMS_P1;PMS_P2;Temp;Humidity;BMP_temperature;BMP_pressure;BME280_temperature;BME280_humidity;BME280_pressure;Samples;Min_cycle;Max_cycle;Signal;HPM_P1;HPM_P2
2023/12/12 00:01:02;;;;;;;4.45;1.70;;;11.40;99.90;;;;;;5014836;28;20290;-70
2023/12/12 00:03:27;;;;;;;9.15;1.90;;;11.40;99.90;;;;;;5014451;28;20191;-70
2023/12/12 00:05:55;;;;;;;4.32;1.60;;;11.30;99.90;;;;;;5000319;28;20269;-71
2023/12/12 00:08:21;;;;;;;3.58;1.30;;;11.40;99.90;;;;;;5010297;28;20183;-71
2023/12/12 00:10:46;;;;;;;3.17;1.27;;;11.40;99.90;;;;;;5010190;28;20178;-68
2023/12/12 00:13:12;;;;;;;7.05;1.73;;;11.30;99.90;;;;;;5014491;28;20210;-70
2023/12/12 00:15:38;;;;;;;5.82;1.58;;;11.40;99.90;;;;;;5014310;28;20245;-70
2023/12/12 00:18:03;;;;;;;3.78;1.45;;;11.30;99.90;;;;;;5001911;28;20218;-70
2023/12/12 00:20:29;;;;;;;5.90;1.60;;;11.30;99.90;;;;;;4999247;28;20187;-71
2023/12/12 00:22:54;;;;;;;4.88;1.30;;;11.30;99.90;;;;;;5002781;28;20183;-69
2023/12/12 00:25:22;;;;;;;5.53;1.40;;;11.30;99.90;;;;;;5011031;28;20180;-71
2023/12/12 00:27:48;;;;;;;4.63;1.30;;;11.40;99.90;;;;;;5005409;28;20175;-70
2023/12/12 00:30:16;;;;;;;5.93;1.60;;;11.30;99.90;;;;;;5008698;28;20263;-71
2023/12/12 00:32:49;;;;;;;8.52;1.98;;;11.30;99.90;;;;;;5013569;28;20202;-69
2023/12/12 00:35:14;;;;;;;5.53;1.60;;;11.30;99.90;;;;;;5010716;28;20262;-70
2023/12/12 00:37:40;;;;;;;5.97;1.38;;;11.30;99.90;;;;;;5007754;28;20314;-71
2023/12/12 00:40:06;;;;;;;3.92;1.40;;;11.30;99.90;;;;;;5003036;28;20184;-71
2023/12/12 00:42:32;;;;;;;5.72;1.30;;;11.30;99.90;;;;;;5008182;28;20178;-70
2023/12/12 00:44:57;;;;;;;3.70;1.20;;;11.40;99.90;;;;;;5010763;28;20244;-70
2023/12/12 00:47:23;;;;;;;3.25;1.35;;;11.40;99.90;;;;;;5013477;28;20171;-70
2023/12/12 00:49:49;;;;;;;3.22;1.35;;;11.40;99.90;;;;;;5012769;28;20167;-70
2023/12/12 00:52:16;;;;;;;2.80;1.13;;;11.40;99.90;;;;;;5012693;28;20201;-70
2023/12/12 00:54:44;;;;;;;2.60;0.90;;;11.40;99.90;;;;;;5014023;28;20202;-70
2023/12/12 00:57:10;;;;;;;2.63;1.08;;;11.40;99.90;;;;;;5011315;28;20372;-70
2023/12/12 00:59:38;;;;;;;5.45;1.30;;;11.40;99.90;;;;;;5013555;28;20202;-71
2023/12/12 01:02:03;;;;;;;5.38;1.10;;;11.40;99.90;;;;;;5012944;28;20247;-71
2023/12/12 01:04:33;;;;;;;4.88;1.33;;;11.40;99.90;;;;;;5012805;28;20278;-71
2023/12/12 01:07:02;;;;;;;3.15;0.98;;;11.40;99.90;;;;;;5014090;28;20186;-71
2023/12/12 01:09:29;;;;;;;2.80;1.08;;;11.40;99.90;;;;;;5013364;28;20197;-70
2023/12/12 01:12:00;;;;;;;4.30;1.13;;;11.50;99.90;;;;;;5009045;28;20336;-71
2023/12/12 01:14:28;;;;;;;3.60;1.20;;;11.40;99.90;;;;;;5013060;28;20389;-71
2023/12/12 01:16:56;;;;;;;8.48;1.45;;;11.40;99.90;;;;;;5011738;28;20195;-67
2023/12/12 01:19:24;;;;;;;4.82;1.17;;;11.30;99.90;;;;;;5015795;28;20241;-71
2023/12/12 01:21:50;;;;;;;3.95;1.20;;;11.40;99.90;;;;;;5011215;28;20199;-65
2023/12/12 01:24:16;;;;;;;2.78;0.90;;;11.40;99.90;;;;;;5012009;28;20270;-69
2023/12/12 01:26:41;;;;;;;4.75;1.02;;;11.40;99.90;;;;;;5013744;28;20293;-71
2023/12/12 01:29:07;;;;;;;9.15;1.55;;;11.40;99.90;;;;;;5012198;28;20201;-69
2023/12/12 01:31:35;;;;;;;5.13;1.13;;;11.30;99.90;;;;;;5012510;28;20191;-70
2023/12/12 01:34:03;;;;;;;2.05;1.10;;;11.40;99.90;;;;;;5012934;28;20171;-69
2023/12/12 01:36:33;;;;;;;2.15;1.20;;;11.30;99.90;;;;;;5013253;28;20178;-71
2023/12/12 01:39:01;;;;;;;2.92;1.05;;;11.30;99.90;;;;;;5013697;28;20211;-71
2023/12/12 01:41:27;;;;;;;3.53;1.05;;;11.30;99.90;;;;;;5013414;28;20179;-71
2023/12/12 01:43:55;;;;;;;3.67;1.15;;;11.30;99.90;;;;;;5013720;28;20233;-71
2023/12/12 01:46:21;;;;;;;4.63;1.23;;;11.30;99.90;;;;;;5013337;28;20171;-70
2023/12/12 01:48:50;;;;;;;5.85;1.30;;;11.30;99.90;;;;;;5012457;28;20181;-70
2023/12/12 01:51:19;;;;;;;5.05;1.17;;;11.30;99.90;;;;;;5005960;28;20199;-67
2023/12/12 01:53:47;;;;;;;4.57;0.98;;;11.30;99.90;;;;;;5000804;28;20183;-70
2023/12/12 01:56:16;;;;;;;3.95;1.00;;;11.30;99.90;;;;;;5009830;28;20183;-70
2023/12/12 01:58:44;;;;;;;3.70;1.30;;;11.30;99.90;;;;;;5012519;28;20226;-63
2023/12/12 02:01:11;;;;;;;4.03;1.30;;;11.30;99.90;;;;;;5013091;28;20186;-64
2023/12/12 02:03:37;;;;;;;5.88;1.40;;;11.30;99.90;;;;;;5010781;28;20178;-64
2023/12/12 02:06:09;;;;;;;3.65;1.17;;;11.20;99.90;;;;;;5017133;28;20174;-64
2023/12/12 02:08:34;;;;;;;4.78;1.25;;;11.30;99.90;;;;;;5017428;28;20198;-64
2023/12/12 02:11:06;;;;;;;3.85;1.10;;;11.30;99.90;;;;;;5013614;28;20230;-63
2023/12/12 02:13:31;;;;;;;3.90;1.08;;;11.30;99.90;;;;;;5014782;28;20186;-63
2023/12/12 02:15:57;;;;;;;3.63;1.13;;;11.30;99.90;;;;;;5002741;28;20183;-64
2023/12/12 02:18:23;;;;;;;4.00;1.30;;;11.30;99.90;;;;;;5008234;28;20237;-63
2023/12/12 02:20:50;;;;;;;3.55;1.05;;;11.30;99.90;;;;;;5011746;28;20179;-64
2023/12/12 02:23:16;;;;;;;5.40;1.13;;;11.20;99.90;;;;;;5015822;28;20203;-64
2023/12/12 02:25:42;;;;;;;7.40;1.35;;;11.30;99.90;;;;;;5015745;28;20178;-65
2023/12/12 02:28:12;;;;;;;4.93;2.00;;;11.30;99.90;;;;;;5013796;28;20273;-63
2023/12/12 02:30:42;;;;;;;4.53;1.40;;;11.30;99.90;;;;;;5010933;28;20206;-64
2023/12/12 02:33:08;;;;;;;6.43;1.80;;;11.20;99.90;;;;;;4997388;28;20214;-65
2023/12/12 02:35:36;;;;;;;6.55;1.38;;;11.20;99.90;;;;;;5014759;28;20182;-64
2023/12/12 02:38:04;;;;;;;6.28;1.50;;;11.20;99.90;;;;;;5015075;28;20213;-64
2023/12/12 02:40:30;;;;;;;4.63;1.48;;;11.10;99.90;;;;;;5012114;28;20236;-63
2023/12/12 02:42:55;;;;;;;5.88;1.48;;;11.20;99.90;;;;;;5016412;28;20182;-62
2023/12/12 02:45:23;;;;;;;5.75;1.40;;;11.10;99.90;;;;;;5014845;28;20185;-63
2023/12/12 02:47:49;;;;;;;7.47;1.88;;;11.10;99.90;;;;;;5013259;28;20254;-64
2023/12/12 02:50:15;;;;;;;6.18;1.58;;;11.10;99.90;;;;;;5008670;28;20302;-64
2023/12/12 02:52:41;;;;;;;4.45;1.35;;;11.00;99.90;;;;;;5009054;28;20178;-64
2023/12/12 02:55:09;;;;;;;4.90;1.50;;;11.00;99.90;;;;;;5013289;28;20244;-64
2023/12/12 02:57:34;;;;;;;3.60;1.23;;;11.00;99.90;;;;;;5011636;28;20185;-65
2023/12/12 03:00:00;;;;;;;5.25;1.23;;;11.00;99.90;;;;;;5012104;28;20202;-64
2023/12/12 03:02:29;;;;;;;4.82;1.45;;;10.90;99.90;;;;;;4997203;28;20184;-65
2023/12/12 03:04:59;;;;;;;5.50;1.45;;;10.90;99.90;;;;;;5003952;28;20240;-64
2023/12/12 03:07:25;;;;;;;9.05;1.50;;;10.90;99.90;;;;;;5013428;28;20176;-65
2023/12/12 03:09:51;;;;;;;7.93;1.83;;;10.90;99.90;;;;;;5015725;28;20213;-63
2023/12/12 03:12:34;;;;;;;6.63;1.60;;;10.90;99.90;;;;;;5008180;28;20257;-66
2023/12/12 03:14:59;;;;;;;6.05;1.65;;;11.00;99.90;;;;;;5007896;28;20174;-62
2023/12/12 03:17:25;;;;;;;6.30;1.75;;;10.90;99.90;;;;;;5012781;28;20243;-65
2023/12/12 03:19:53;;;;;;;5.43;1.70;;;10.90;99.90;;;;;;5012596;28;20202;-64
2023/12/12 03:22:21;;;;;;;7.13;1.90;;;10.80;99.90;;;;;;4997153;28;20217;-64
2023/12/12 03:24:47;;;;;;;5.78;1.80;;;10.80;99.90;;;;;;5004923;28;20437;-65
2023/12/12 03:27:12;;;;;;;6.63;1.90;;;10.70;99.90;;;;;;5012117;28;20170;-63
2023/12/12 03:29:38;;;;;;;6.00;1.60;;;10.80;99.90;;;;;;5014979;28;20206;-64
2023/12/12 03:32:06;;;;;;;8.60;1.50;;;10.70;99.90;;;;;;5008706;28;20450;-65
2023/12/12 03:34:34;;;;;;;5.68;1.60;;;10.70;99.90;;;;;;5015113;28;20175;-63
2023/12/12 03:37:02;;;;;;;7.93;1.65;;;10.70;99.90;;;;;;5015243;28;20202;-65
2023/12/12 03:39:28;;;;;;;6.68;1.60;;;10.70;99.90;;;;;;5002105;28;20204;-65
2023/12/12 03:41:54;;;;;;;4.15;1.30;;;10.70;99.90;;;;;;5009752;28;20182;-64
2023/12/12 03:44:22;;;;;;;5.80;2.03;;;10.70;99.90;;;;;;5004455;28;20202;-65
2023/12/12 03:46:50;;;;;;;4.82;1.60;;;10.70;99.90;;;;;;5008756;28;20175;-65
2023/12/12 03:49:17;;;;;;;6.80;1.83;;;10.70;99.90;;;;;;5017975;28;20182;-65
2023/12/12 03:51:43;;;;;;;8.88;1.60;;;10.80;99.90;;;;;;5009410;28;20174;-66
2023/12/12 03:54:11;;;;;;;3.85;1.40;;;10.70;99.90;;;;;;5007485;28;20197;-64
2023/12/12 03:56:36;;;;;;;5.97;1.55;;;10.80;99.90;;;;;;5014237;28;20206;-65
2023/12/12 03:59:04;;;;;;;5.50;1.45;;;10.80;99.90;;;;;;5014511;28;20208;-66
2023/12/12 04:01:31;;;;;;;9.48;1.75;;;10.80;99.90;;;;;;5013490;28;20186;-65
2023/12/12 04:03:57;;;;;;;6.32;1.80;;;10.80;99.90;;;;;;5014626;28;20202;-64
2023/12/12 04:06:23;;;;;;;6.75;1.50;;;10.80;99.90;;;;;;4998459;28;20172;-63
2023/12/12 04:08:49;;;;;;;6.22;1.83;;;10.80;99.90;;;;;;5012995;28;20212;-64
2023/12/12 04:11:15;;;;;;;6.18;1.60;;;10.80;99.90;;;;;;5012424;28;20188;-64
2023/12/12 04:13:51;;;;;;;6.85;1.95;;;10.80;99.90;;;;;;5014893;28;20274;-67
2023/12/12 04:16:18;;;;;;;6.63;1.48;;;10.80;99.90;;;;;;5010650;28;20206;-64
2023/12/12 04:18:44;;;;;;;8.60;1.80;;;10.80;99.90;;;;;;5010478;28;20199;-64
2023/12/12 04:21:12;;;;;;;7.30;1.77;;;10.90;99.90;;;;;;5003078;28;20197;-64
2023/12/12 04:23:42;;;;;;;5.53;2.03;;;10.90;99.90;;;;;;5014355;28;20179;-64
2023/12/12 04:26:10;;;;;;;10.43;2.20;;;10.90;99.90;;;;;;5014720;28;20199;-63
2023/12/12 04:28:39;;;;;;;6.10;1.83;;;10.80;99.90;;;;;;5015219;28;20209;-66
2023/12/12 04:31:05;;;;;;;7.25;1.92;;;10.90;99.90;;;;;;5021325;28;20278;-65
2023/12/12 04:33:32;;;;;;;6.13;1.95;;;10.90;99.90;;;;;;5022849;28;20402;-65
2023/12/12 04:35:59;;;;;;;7.95;2.42;;;10.90;99.90;;;;;;5011444;28;20183;-65
2023/12/12 04:38:27;;;;;;;8.27;1.98;;;10.90;99.90;;;;;;5014436;28;20213;-65
2023/12/12 04:40:53;;;;;;;5.93;1.52;;;10.90;99.90;;;;;;5013965;28;20278;-64
2023/12/12 04:43:18;;;;;;;4.53;1.60;;;10.90;99.90;;;;;;5006889;28;20178;-65
2023/12/12 04:45:46;;;;;;;6.45;1.83;;;10.90;99.90;;;;;;5013056;28;20209;-64
2023/12/12 04:48:12;;;;;;;6.18;1.90;;;10.90;99.90;;;;;;5004653;28;20205;-65
2023/12/12 04:50:37;;;;;;;5.35;1.88;;;10.90;99.90;;;;;;5013756;28;20179;-66
2023/12/12 04:53:05;;;;;;;6.45;2.03;;;10.90;99.90;;;;;;5014412;28;20269;-65
2023/12/12 04:55:33;;;;;;;6.50;1.90;;;10.90;99.90;;;;;;5013653;28;20198;-65
2023/12/12 04:57:58;;;;;;;7.93;2.15;;;10.90;99.90;;;;;;5010368;28;20278;-65
2023/12/12 05:00:24;;;;;;;7.45;1.67;;;10.90;99.90;;;;;;5014789;28;20258;-66
2023/12/12 05:02:52;;;;;;;6.60;1.80;;;10.90;99.90;;;;;;5010340;28;20306;-66
2023/12/12 05:05:18;;;;;;;6.53;1.60;;;11.00;99.90;;;;;;5006776;28;20179;-65
2023/12/12 05:07:44;;;;;;;7.68;1.58;;;11.00;99.90;;;;;;5018947;28;20209;-65
2023/12/12 05:10:11;;;;;;;6.45;1.63;;;11.00;99.90;;;;;;5014649;28;20179;-65
2023/12/12 05:12:39;;;;;;;12.20;2.30;;;10.90;99.90;;;;;;5007448;28;20186;-64
2023/12/12 05:15:06;;;;;;;6.00;1.98;;;11.00;99.90;;;;;;5013398;28;20244;-64
2023/12/12 05:17:31;;;;;;;7.15;2.17;;;11.00;99.90;;;;;;5013073;28;20251;-64
2023/12/12 05:20:00;;;;;;;10.38;2.38;;;11.00;99.90;;;;;;5013821;28;20206;-65
2023/12/12 05:22:30;;;;;;;8.52;2.30;;;11.00;99.90;;;;;;5013999;28;20235;-65
2023/12/12 05:24:56;;;;;;;10.85;2.28;;;11.00;99.90;;;;;;5010764;28;20194;-65
2023/12/12 05:27:24;;;;;;;8.02;2.30;;;11.10;99.90;;;;;;5001989;28;20175;-65
2023/12/12 05:29:54;;;;;;;9.73;2.42;;;11.00;99.90;;;;;;5009033;28;20198;-65
2023/12/12 05:32:20;;;;;;;7.53;2.17;;;11.10;99.90;;;;;;5005563;28;20202;-64
2023/12/12 05:34:46;;;;;;;7.65;2.40;;;11.00;99.90;;;;;;5006767;28;20245;-65
2023/12/12 05:37:13;;;;;;;8.38;2.28;;;11.00;99.90;;;;;;5012564;28;20202;-66
2023/12/12 05:39:39;;;;;;;8.95;2.83;;;11.10;99.90;;;;;;5016450;28;20190;-65
2023/12/12 05:42:05;;;;;;;7.82;2.58;;;11.10;99.90;;;;;;5018297;28;20179;-64
2023/12/12 05:44:31;;;;;;;9.50;2.72;;;11.00;99.90;;;;;;5017718;28;20252;-65
2023/12/12 05:46:57;;;;;;;9.50;2.40;;;11.10;99.90;;;;;;5017840;28;20194;-64
2023/12/12 05:49:25;;;;;;;8.18;1.98;;;11.10;99.90;;;;;;5017726;28;20268;-65
2023/12/12 05:51:51;;;;;;;9.10;2.35;;;11.10;99.90;;;;;;5031940;28;20190;-64
2023/12/12 05:54:18;;;;;;;7.95;1.95;;;11.10;99.90;;;;;;5029211;28;20179;-64
2023/12/12 05:56:45;;;;;;;11.88;3.20;;;11.10;99.90;;;;;;5028057;28;20210;-64
2023/12/12 05:59:14;;;;;;;6.30;1.58;;;11.10;99.90;;;;;;5020125;28;20210;-65
2023/12/12 06:01:43;;;;;;;9.55;2.30;;;11.10;99.90;;;;;;5017853;28;20174;-65
2023/12/12 06:04:11;;;;;;;9.63;2.50;;;11.10;99.90;;;;;;5017381;28;20198;-64
2023/12/12 06:06:44;;;;;;;7.38;2.38;;;11.10;99.90;;;;;;5017260;28;20193;-66
2023/12/12 06:09:13;;;;;;;4.20;1.67;;;11.10;99.90;;;;;;5034980;28;20352;-64
2023/12/12 06:11:41;;;;;;;6.97;2.08;;;11.10;99.90;;;;;;5026704;28;20213;-64
2023/12/12 06:14:07;;;;;;;7.53;2.10;;;11.10;99.90;;;;;;5014008;28;20179;-64
2023/12/12 06:16:34;;;;;;;5.47;1.83;;;11.20;99.90;;;;;;5017412;28;20192;-64
2023/12/12 06:18:59;;;;;;;8.35;2.13;;;11.10;99.90;;;;;;5017266;28;20210;-64
2023/12/12 06:21:25;;;;;;;7.97;1.98;;;11.20;99.90;;;;;;5017387;28;20201;-63
2023/12/12 06:23:51;;;;;;;4.78;1.67;;;11.20;99.90;;;;;;5017438;28;20545;-65
2023/12/12 06:26:18;;;;;;;4.90;1.50;;;11.20;99.90;;;;;;5035777;28;20221;-64
2023/12/12 06:28:46;;;;;;;7.07;2.00;;;11.20;99.90;;;;;;5024432;28;20214;-64
2023/12/12 06:31:14;;;;;;;6.45;2.00;;;11.20;99.90;;;;;;5012004;28;20187;-64
2023/12/12 06:33:40;;;;;;;6.90;3.15;;;11.20;99.90;;;;;;4997423;28;20338;-66
2023/12/12 06:36:09;;;;;;;7.18;2.22;;;11.20;99.90;;;;;;4997602;28;20210;-66
2023/12/12 06:38:37;;;;;;;5.65;2.00;;;11.20;99.90;;;;;;5009502;28;20202;-64
2023/12/12 06:41:03;;;;;;;5.88;2.30;;;11.30;99.90;;;;;;5010039;28;20202;-64
2023/12/12 06:43:29;;;;;;;6.78;2.33;;;11.20;99.90;;;;;;5023293;28;20186;-64
2023/12/12 06:45:55;;;;;;;5.93;2.08;;;11.30;99.90;;;;;;5016558;28;20202;-65
2023/12/12 06:48:20;;;;;;;8.30;2.40;;;11.30;99.90;;;;;;5016874;28;20181;-65
2023/12/12 06:50:52;;;;;;;4.60;2.03;;;11.30;99.90;;;;;;5016576;28;20336;-66
2023/12/12 06:53:18;;;;;;;5.70;1.83;;;11.30;99.90;;;;;;5016648;28;20210;-66
2023/12/12 06:55:48;;;;;;;5.72;2.20;;;11.30;99.90;;;;;;5015067;28;20277;-66
2023/12/12 06:58:17;;;;;;;5.60;1.60;;;11.30;99.90;;;;;;5010176;28;20210;-66
2023/12/12 07:00:43;;;;;;;8.20;2.15;;;11.30;99.90;;;;;;5010788;28;20168;-66
2023/12/12 07:03:12;;;;;;;7.43;2.08;;;11.30;99.90;;;;;;5016028;28;20175;-66
2023/12/12 07:05:40;;;;;;;7.78;2.20;;;11.30;99.90;;;;;;5016635;28;20273;-64
2023/12/12 07:08:06;;;;;;;7.55;2.30;;;11.30;99.90;;;;;;5015584;28;20170;-65
2023/12/12 07:10:35;;;;;;;6.60;2.08;;;11.30;99.90;;;;;;5014137;28;20198;-66
2023/12/12 07:13:00;;;;;;;5.18;1.90;;;11.30;99.90;;;;;;5011954;28;20251;-65
2023/12/12 07:15:30;;;;;;;9.07;1.88;;;11.30;99.90;;;;;;5015972;28;20255;-65
2023/12/12 07:17:55;;;;;;;8.05;1.90;;;11.20;99.90;;;;;;5015258;28;20264;-65
2023/12/12 07:20:23;;;;;;;6.13;1.80;;;11.20;99.90;;;;;;5015939;28;20167;-64
2023/12/12 07:22:49;;;;;;;10.68;1.83;;;11.10;99.90;;;;;;5016048;28;20432;-64
2023/12/12 07:25:15;;;;;;;4.93;2.08;;;11.10;99.90;;;;;;5015861;28;20174;-65
2023/12/12 07:27:41;;;;;;;4.30;1.55;;;11.00;99.90;;;;;;5015823;28;20186;-65
2023/12/12 07:30:07;;;;;;;6.85;2.13;;;11.00;99.90;;;;;;5015761;28;20209;-66
2023/12/12 07:32:32;;;;;;;5.13;2.15;;;11.00;99.90;;;;;;5015540;28;20206;-65
2023/12/12 07:35:03;;;;;;;4.28;1.73;;;10.90;99.90;;;;;;5015760;28;20288;-65
2023/12/12 07:37:28;;;;;;;7.05;1.90;;;10.80;99.90;;;;;;5015568;28;20206;-66
2023/12/12 07:39:56;;;;;;;12.18;2.20;;;10.80;99.90;;;;;;5015777;28;20209;-64
2023/12/12 07:42:22;;;;;;;6.38;1.63;;;10.70;99.90;;;;;;5015596;28;20430;-64
2023/12/12 07:44:47;;;;;;;7.32;1.92;;;10.60;99.90;;;;;;5015470;28;20315;-64
2023/12/12 07:47:13;;;;;;;7.38;2.20;;;10.60;99.90;;;;;;5015583;28;20166;-64
2023/12/12 07:49:39;;;;;;;6.88;2.03;;;10.50;99.90;;;;;;5015516;28;20182;-64
2023/12/12 07:52:05;;;;;;;5.78;2.17;;;10.40;99.90;;;;;;5014989;28;20297;-64
2023/12/12 07:54:31;;;;;;;5.57;1.95;;;10.40;99.90;;;;;;5015814;28;20198;-64
2023/12/12 07:56:58;;;;;;;9.18;2.15;;;10.30;99.90;;;;;;5015220;28;20182;-65
2023/12/12 07:59:24;;;;;;;10.27;2.20;;;10.30;99.90;;;;;;5015044;28;20198;-65
2023/12/12 08:01:50;;;;;;;6.00;1.98;;;10.30;99.90;;;;;;5014731;28;20288;-65
2023/12/12 08:04:18;;;;;;;5.70;1.95;;;10.30;99.90;;;;;;5015195;28;20178;-64
2023/12/12 08:06:43;;;;;;;5.57;1.98;;;10.20;99.90;;;;;;5015143;28;20179;-64
2023/12/12 08:09:09;;;;;;;7.78;2.20;;;10.20;99.90;;;;;;5015292;28;20179;-64
2023/12/12 08:11:35;;;;;;;7.38;2.20;;;10.10;99.90;;;;;;5014736;28;20199;-64
2023/12/12 08:14:00;;;;;;;9.45;2.67;;;10.20;99.90;;;;;;5014827;28;20255;-64
2023/12/12 08:16:26;;;;;;;7.13;2.03;;;10.10;99.90;;;;;;5014735;28;20183;-64
2023/12/12 08:18:52;;;;;;;8.38;2.33;;;10.20;99.90;;;;;;5014583;28;20214;-64
2023/12/12 08:21:17;;;;;;;5.70;1.90;;;10.10;99.90;;;;;;5014646;28;20175;-64
2023/12/12 08:23:48;;;;;;;5.93;1.90;;;10.10;99.90;;;;;;5014937;28;20521;-65
2023/12/12 08:26:14;;;;;;;5.32;2.30;;;10.10;99.90;;;;;;5004710;28;20199;-65
2023/12/12 08:28:40;;;;;;;6.45;1.90;;;10.10;99.90;;;;;;5007056;28;20183;-65
2023/12/12 08:31:06;;;;;;;6.07;2.08;;;10.10;99.90;;;;;;5014312;28;20189;-63
2023/12/12 08:33:33;;;;;;;4.78;2.05;;;10.10;99.90;;;;;;5014512;28;20184;-64
2023/12/12 08:36:02;;;;;;;5.78;1.88;;;10.10;99.90;;;;;;5014155;28;20189;-64
2023/12/12 08:38:29;;;;;;;6.25;2.25;;;10.10;99.90;;;;;;5014362;28;20194;-63
2023/12/12 08:40:56;;;;;;;8.90;2.35;;;10.10;99.90;;;;;;5014371;28;20190;-63
2023/12/12 08:43:23;;;;;;;9.43;2.88;;;10.20;99.90;;;;;;5014561;28;20206;-64
2023/12/12 08:45:50;;;;;;;6.40;2.40;;;10.20;99.90;;;;;;5014453;28;20198;-64
2023/12/12 08:48:16;;;;;;;6.10;2.33;;;10.20;99.90;;;;;;5014658;28;20217;-64
2023/12/12 08:50:41;;;;;;;7.00;2.03;;;10.20;99.90;;;;;;5014436;28;20229;-64
2023/12/12 08:53:08;;;;;;;7.80;2.22;;;10.30;99.90;;;;;;5013849;28;20213;-65
2023/12/12 08:55:33;;;;;;;6.10;2.10;;;10.30;99.90;;;;;;5014358;28;20185;-64
2023/12/12 08:57:59;;;;;;;5.90;2.10;;;10.40;99.90;;;;;;5013945;28;20187;-65
2023/12/12 09:00:24;;;;;;;10.55;2.22;;;10.40;99.90;;;;;;5013794;28;20205;-64
2023/12/12 09:02:50;;;;;;;7.35;2.28;;;10.50;99.90;;;;;;5014112;28;20179;-65
2023/12/12 09:05:18;;;;;;;8.93;2.20;;;10.60;99.90;;;;;;5014065;28;20313;-64
2023/12/12 09:07:46;;;;;;;7.15;2.70;;;10.60;99.90;;;;;;5013890;28;20189;-64
2023/12/12 09:10:12;;;;;;;9.35;2.53;;;10.60;99.90;;;;;;5013986;28;20193;-65
2023/12/12 09:12:40;;;;;;;8.02;2.20;;;10.70;99.90;;;;;;5013271;28;20261;-64
2023/12/12 09:15:09;;;;;;;6.28;1.92;;;10.80;99.90;;;;;;5013951;28;20190;-67
2023/12/12 09:17:35;;;;;;;10.15;2.72;;;10.80;99.90;;;;;;5013819;28;20201;-64
2023/12/12 09:20:01;;;;;;;7.85;2.75;;;10.90;99.90;;;;;;5013784;28;20226;-65
2023/12/12 09:22:27;;;;;;;5.45;1.95;;;10.90;99.90;;;;;;5013845;28;20213;-65
2023/12/12 09:24:53;;;;;;;6.38;2.10;;;10.90;99.90;;;;;;5013848;28;20269;-64
2023/12/12 09:27:22;;;;;;;10.85;2.67;;;10.90;99.90;;;;;;5001944;28;20199;-64
2023/12/12 09:29:47;;;;;;;6.95;2.50;;;10.90;99.90;;;;;;5014013;28;20265;-65
2023/12/12 09:32:13;;;;;;;8.07;2.65;;;10.90;99.90;;;;;;5013973;28;20278;-66
2023/12/12 09:34:38;;;;;;;6.55;2.50;;;11.00;99.90;;;;;;5013670;28;20198;-64
2023/12/12 09:37:04;;;;;;;8.57;2.67;;;11.00;99.90;;;;;;5013779;28;20190;-65
2023/12/12 09:39:30;;;;;;;8.73;2.75;;;11.00;99.90;;;;;;5013726;28;20198;-66
2023/12/12 09:41:59;;;;;;;7.28;2.40;;;11.00;99.90;;;;;;5013834;28;20235;-65
2023/12/12 09:44:30;;;;;;;9.07;2.38;;;11.10;99.90;;;;;;5013789;28;20186;-65
2023/12/12 09:47:01;;;;;;;7.93;2.40;;;11.10;99.90;;;;;;5013611;28;20171;-64
2023/12/12 09:49:31;;;;;;;7.32;2.45;;;11.10;99.90;;;;;;5013393;28;20262;-65
2023/12/12 09:52:00;;;;;;;6.15;2.20;;;11.10;99.90;;;;;;5013793;28;20174;-66
2023/12/12 09:54:26;;;;;;;6.88;2.20;;;11.20;99.90;;;;;;5013682;28;20198;-65
2023/12/12 09:56:53;;;;;;;8.18;2.90;;;11.10;99.90;;;;;;5013610;28;20171;-65
2023/12/12 09:59:19;;;;;;;5.78;1.95;;;11.20;99.90;;;;;;5013489;28;20198;-65
2023/12/12 10:01:47;;;;;;;6.07;2.35;;;11.20;99.90;;;;;;5021797;28;20292;-65
2023/12/12 10:04:19;;;;;;;6.55;2.30;;;11.20;99.90;;;;;;5013658;28;20174;-64
2023/12/12 10:06:52;;;;;;;4.93;2.03;;;11.20;99.90;;;;;;5028104;28;20266;-70
2023/12/12 10:09:21;;;;;;;8.10;2.42;;;11.30;99.90;;;;;;5013246;28;20277;-69
2023/12/12 10:11:48;;;;;;;8.40;2.50;;;11.30;99.90;;;;;;5013363;28;20177;-69
2023/12/12 10:14:13;;;;;;;8.32;2.50;;;11.20;99.90;;;;;;5013471;28;20269;-69
2023/12/12 10:16:39;;;;;;;5.43;2.20;;;11.30;99.90;;;;;;5009374;28;20266;-70
2023/12/12 10:19:13;;;;;;;10.93;3.28;;;11.30;99.90;;;;;;5001089;28;20211;-68
2023/12/12 10:21:38;;;;;;;7.78;2.53;;;11.30;99.90;;;;;;5013558;28;20217;-70
2023/12/12 10:24:04;;;;;;;7.32;3.08;;;11.30;99.90;;;;;;5031995;28;20205;-69
2023/12/12 10:26:33;;;;;;;7.90;2.85;;;11.30;99.90;;;;;;5036445;28;20205;-68
2023/12/12 10:29:00;;;;;;;6.70;2.53;;;11.40;99.90;;;;;;5024671;28;20393;-68
2023/12/12 10:31:26;;;;;;;5.00;2.42;;;11.40;99.90;;;;;;5016735;28;20269;-70
2023/12/12 10:33:57;;;;;;;8.15;2.75;;;11.40;99.90;;;;;;5016435;28;20273;-69
2023/12/12 10:36:24;;;;;;;6.03;2.22;;;11.60;99.90;;;;;;5017493;28;20258;-69
2023/12/12 10:38:50;;;;;;;8.13;3.03;;;11.60;99.90;;;;;;5016508;28;20482;-68
2023/12/12 10:41:20;;;;;;;6.72;2.65;;;11.60;99.90;;;;;;5035680;28;20220;-69
2023/12/12 10:43:47;;;;;;;9.57;3.47;;;11.60;99.90;;;;;;5011975;28;20269;-67
2023/12/12 10:46:14;;;;;;;9.23;3.05;;;11.60;99.90;;;;;;5016080;28;20182;-69
2023/12/12 10:48:46;;;;;;;8.50;3.20;;;11.60;99.90;;;;;;5016109;28;20183;-68
2023/12/12 10:51:18;;;;;;;9.27;3.00;;;11.60;99.90;;;;;;5015431;28;20206;-66
2023/12/12 10:53:51;;;;;;;6.93;2.30;;;11.60;99.90;;;;;;5016207;28;20186;-69
2023/12/12 10:56:17;;;;;;;8.98;2.38;;;11.70;99.90;;;;;;5016091;28;20206;-69
2023/12/12 10:58:49;;;;;;;6.45;2.25;;;11.60;99.90;;;;;;5016074;28;20280;-69
2023/12/12 11:01:15;;;;;;;8.15;2.50;;;11.60;99.90;;;;;;5016099;28;20170;-68
2023/12/12 11:03:43;;;;;;;10.32;2.90;;;11.60;99.90;;;;;;5015870;28;20197;-69
2023/12/12 11:06:11;;;;;;;7.38;2.75;;;11.70;99.90;;;;;;5015848;28;20198;-69
2023/12/12 11:08:42;;;;;;;5.70;2.17;;;11.70;99.90;;;;;;5015763;28;20240;-68
2023/12/12 11:11:11;;;;;;;7.80;2.70;;;11.70;99.90;;;;;;5015643;28;20195;-69
2023/12/12 11:13:39;;;;;;;7.10;2.85;;;11.70;99.90;;;;;;5015533;28;20179;-69
2023/12/12 11:16:07;;;;;;;9.85;2.65;;;11.70;99.90;;;;;;5015752;28;20201;-70
2023/12/12 11:18:43;;;;;;;10.63;3.35;;;11.70;99.90;;;;;;5015672;28;20210;-70
2023/12/12 11:21:41;;;;;;;6.80;2.72;;;11.70;99.90;;;;;;5015951;28;20177;-68
2023/12/12 11:24:07;;;;;;;7.57;2.90;;;11.70;99.90;;;;;;5015585;28;20244;-69
2023/12/12 11:26:34;;;;;;;6.82;2.63;;;11.80;99.90;;;;;;5013216;28;20178;-70
2023/12/12 11:29:04;;;;;;;8.20;2.83;;;11.80;99.90;;;;;;4996001;28;20210;-68
2023/12/12 11:31:34;;;;;;;6.45;2.55;;;11.80;99.90;;;;;;5019147;28;20227;-69
2023/12/12 11:34:10;;;;;;;8.50;3.22;;;11.90;99.90;;;;;;5035293;28;20186;-67
2023/12/12 11:36:53;;;;;;;11.55;3.63;;;11.90;99.90;;;;;;5029897;28;20368;-69
2023/12/12 11:39:26;;;;;;;6.38;2.85;;;12.00;99.90;;;;;;5015576;28;20205;-67
2023/12/12 11:41:52;;;;;;;6.90;3.00;;;12.00;99.90;;;;;;5015293;28;20179;-68
2023/12/12 11:44:20;;;;;;;6.10;2.95;;;12.10;99.90;;;;;;5031799;28;20194;-69
2023/12/12 11:46:49;;;;;;;6.38;2.70;;;12.10;99.90;;;;;;5015502;28;20236;-65
2023/12/12 11:49:24;;;;;;;6.97;2.60;;;12.20;99.90;;;;;;5015369;28;20179;-69
2023/12/12 11:51:51;;;;;;;6.97;2.80;;;12.30;99.90;;;;;;4998232;28;20234;-68
2023/12/12 11:54:21;;;;;;;8.10;2.72;;;12.30;99.90;;;;;;5014756;28;20269;-69
2023/12/12 11:56:56;;;;;;;7.05;2.95;;;12.40;99.90;;;;;;5015086;28;20171;-69
2023/12/12 11:59:24;;;;;;;7.00;3.22;;;12.40;99.90;;;;;;5011609;28;20207;-69
2023/12/12 12:01:50;;;;;;;12.05;4.50;;;12.40;99.90;;;;;;5004973;28;20179;-69
2023/12/12 12:04:18;;;;;;;8.70;3.42;;;12.40;99.90;;;;;;4997136;28;20167;-69
2023/12/12 12:06:46;;;;;;;8.02;2.92;;;12.50;99.90;;;;;;5007561;28;20183;-70
2023/12/12 12:09:13;;;;;;;7.65;3.17;;;12.50;99.90;;;;;;5014660;28;20244;-67
2023/12/12 12:11:48;;;;;;;8.77;3.30;;;12.50;99.90;;;;;;5013914;28;20209;-68
2023/12/12 12:14:24;;;;;;;5.97;2.70;;;12.50;99.90;;;;;;5014481;28;20170;-69
2023/12/12 12:16:53;;;;;;;9.18;2.95;;;12.50;99.90;;;;;;5014584;28;20186;-69
2023/12/12 12:19:39;;;;;;;6.95;2.83;;;12.50;99.90;;;;;;5014517;28;20224;-70
2023/12/12 12:22:06;;;;;;;5.20;3.10;;;12.60;99.90;;;;;;5004349;28;20190;-69
2023/12/12 12:24:32;;;;;;;7.05;2.28;;;12.60;99.90;;;;;;5014591;28;20170;-69
2023/12/12 12:27:06;;;;;;;4.45;2.60;;;12.60;99.90;;;;;;5033156;28;20174;-70
2023/12/12 12:29:32;;;;;;;4.30;2.28;;;12.70;99.90;;;;;;5034167;28;20223;-70
2023/12/12 12:32:15;;;;;;;5.22;2.30;;;12.70;99.90;;;;;;5034284;28;20236;-66
2023/12/12 12:34:44;;;;;;;5.82;2.65;;;12.70;99.90;;;;;;5009723;28;20190;-70
2023/12/12 12:37:32;;;;;;;4.95;2.85;;;12.70;99.90;;;;;;5014157;28;20186;-69
2023/12/12 12:39:58;;;;;;;6.60;3.08;;;12.70;99.90;;;;;;5013776;28;20501;-68
2023/12/12 12:42:37;;;;;;;11.20;3.67;;;12.80;99.90;;;;;;5015105;28;20249;-70
2023/12/12 12:45:09;;;;;;;6.65;2.97;;;12.80;99.90;;;;;;5014238;28;20166;-69
2023/12/12 12:47:35;;;;;;;5.32;2.78;;;12.80;99.90;;;;;;5014005;28;20178;-70